Time;durP1;ratioP1;P1;durP2;ratioP2;P2;SDS_P1;SDS_P2;PMS_P1;PMS_P2;Temp;Humidity;BMP_temperature;BMP_pressure;BME280_temperature;BME280_humidity;BME280_pressure;Samples;Min_cycle;Max_cycle;Signal;HPM_P1;HPM_P2
2021/12/02 00:00:51;;;;;;;;;3.50;2.00;;;;;7.72;72.30;99630.47;4932267;28;45242;-83
2021/12/02 00:03:16;;;;;;;;;3.50;3.50;;;;;7.88;73.02;99651.44;4915796;28;47860;-82
2021/12/02 00:05:42;;;;;;;;;5.00;4.25;;;;;7.79;72.40;99641.81;4920797;28;45184;-81
2021/12/02 00:08:07;;;;;;;;;5.50;4.00;;;;;7.97;72.86;99690.78;4931158;28;44700;-83
2021/12/02 00:10:37;;;;;;;;;7.00;3.00;;;;;7.96;72.89;99684.66;4919849;28;45137;-85
2021/12/02 00:13:03;;;;;;;;;2.25;2.25;;;;;7.82;72.92;99664.56;4930935;28;45392;-84
2021/12/02 00:15:36;;;;;;;;;4.00;3.75;;;;;7.53;73.47;99633.03;4936469;28;45419;-84
2021/12/02 00:21:03;;;;;;;;;2.75;2.75;;;;;7.57;74.03;99658.41;4930659;28;45276;-80
2021/12/02 00:23:34;;;;;;;;;4.00;4.00;;;;;7.80;74.15;99698.63;4913660;28;45427;-83
2021/12/02 00:26:02;;;;;;;;;4.75;3.25;;;;;7.62;73.58;99660.16;4934702;28;45398;-83
2021/12/02 00:28:30;;;;;;;;;4.75;4.75;;;;;7.49;73.85;99640.03;4936975;28;45352;-84
2021/12/02 00:30:57;;;;;;;;;4.25;2.25;;;;;7.51;73.76;99651.38;4934666;28;45431;-83
2021/12/02 00:33:28;;;;;;;;;5.00;3.50;;;;;7.63;73.33;99669.78;4933719;28;46392;-81
2021/12/02 00:35:54;;;;;;;;;6.00;6.00;;;;;7.84;73.31;99692.53;4934933;28;44708;-82
2021/12/02 00:38:21;;;;;;;;;5.50;4.75;;;;;7.84;74.05;99702.16;4932955;28;45279;-83
2021/12/02 00:40:48;;;;;;;;;5.75;5.75;;;;;7.61;74.38;99674.13;4929815;28;44873;-81
2021/12/02 00:43:15;;;;;;;;;4.25;2.75;;;;;7.74;74.73;99710.88;4927288;28;45703;-82
2021/12/02 00:45:41;;;;;;;;;6.75;3.00;;;;;7.60;75.65;99679.38;4926479;28;45312;-84
2021/12/02 00:48:11;;;;;;;;;4.25;4.25;;;;;7.75;75.29;99697.75;4923080;28;45315;-85
2021/12/02 00:50:40;;;;;;;;;4.25;3.00;;;;;7.75;75.41;99707.38;4924304;28;45373;-83
2021/12/02 00:53:07;;;;;;;;;5.00;5.00;;;;;7.87;76.02;99724.00;4923014;28;45400;-84
2021/12/02 00:55:39;;;;;;;;;6.25;6.00;;;;;7.79;75.11;99714.34;4922180;28;45534;-85
2021/12/02 00:58:05;;;;;;;;;3.25;3.25;;;;;7.63;74.68;99684.59;4902896;29;45394;-86
2021/12/02 01:00:32;;;;;;;;;6.00;6.00;;;;;7.63;75.47;99695.09;4907560;28;45475;-85
2021/12/02 01:03:02;;;;;;;;;3.00;3.00;;;;;7.82;75.55;99727.50;4922061;28;45471;-83
2021/12/02 01:05:30;;;;;;;;;4.50;4.50;;;;;7.60;75.22;99689.84;4921801;28;45432;-85
2021/12/02 01:07:58;;;;;;;;;6.75;5.25;;;;;7.73;76.00;99712.63;4920049;28;45223;-85
2021/12/02 01:10:24;;;;;;;;;7.25;5.00;;;;;7.68;75.33;99706.47;4921512;28;45405;-84
2021/12/02 01:12:50;;;;;;;;;6.50;5.25;;;;;7.86;75.47;99735.34;4920041;28;46188;-85
2021/12/02 01:15:16;;;;;;;;;6.00;6.00;;;;;7.61;75.87;99694.22;4920976;28;45298;-83
2021/12/02 01:17:42;;;;;;;;;6.50;6.00;;;;;7.76;75.69;99717.84;4920758;28;45572;-82
2021/12/02 01:20:08;;;;;;;;;6.50;6.50;;;;;7.86;75.18;99739.72;4907600;28;45467;-82
2021/12/02 01:22:37;;;;;;;;;8.00;7.00;;;;;7.94;75.30;99751.09;4905230;28;46088;-83
2021/12/02 01:25:05;;;;;;;;;4.75;4.75;;;;;7.78;75.40;99710.88;4901463;29;45394;-85
2021/12/02 01:27:34;;;;;;;;;8.00;8.00;;;;;7.68;75.22;99702.09;4905687;28;45372;-85
2021/12/02 01:30:00;;;;;;;;;10.75;8.25;;;;;7.52;75.35;99686.31;4920764;28;45237;-85
2021/12/02 01:32:27;;;;;;;;;8.50;8.50;;;;;7.46;76.07;99678.47;4920108;28;46383;-84
2021/12/02 01:34:56;;;;;;;;;8.25;7.00;;;;;7.74;75.84;99716.13;4919077;28;45364;-85
2021/12/02 01:37:21;;;;;;;;;9.00;8.00;;;;;7.83;75.99;99722.25;4901916;29;45415;-84
2021/12/02 01:39:49;;;;;;;;;8.25;8.25;;;;;7.78;75.80;99715.22;4917817;28;45347;-83
2021/12/02 01:42:25;;;;;;;;;10.25;10.25;;;;;7.95;75.49;99753.72;4920802;28;45438;-85
2021/12/02 01:44:53;;;;;;;;;6.25;6.25;;;;;7.96;75.48;99763.34;4921362;28;45324;-83
2021/12/02 01:47:23;;;;;;;;;4.50;4.50;;;;;7.95;75.39;99771.22;4923373;28;45257;-85
2021/12/02 01:49:53;;;;;;;;;8.00;7.25;;;;;7.96;75.03;99780.81;4922855;28;45546;-84
2021/12/02 01:52:25;;;;;;;;;13.50;6.75;;;;;7.84;75.23;99759.84;4921443;28;46605;-85
2021/12/02 01:54:59;;;;;;;;;8.75;7.50;;;;;7.89;75.77;99772.06;4920040;28;45490;-84
2021/12/02 01:57:33;;;;;;;;;7.50;7.50;;;;;7.79;75.39;99756.31;4914537;28;45443;-84
2021/12/02 02:00:10;;;;;;;;;7.25;7.25;;;;;7.95;75.42;99784.31;4914801;28;45366;-84
2021/12/02 02:02:37;;;;;;;;;7.75;7.75;;;;;7.79;75.15;99753.69;4908748;28;46713;-84
2021/12/02 02:05:12;;;;;;;;;8.25;8.25;;;;;7.96;75.58;99789.56;4926333;28;45608;-84
2021/12/02 02:07:51;;;;;;;;;8.00;8.00;;;;;7.95;75.56;99800.94;4909313;28;45452;-85
2021/12/02 02:10:16;;;;;;;;;9.25;7.00;;;;;7.75;75.31;99762.44;4925034;28;45399;-84
2021/12/02 02:12:42;;;;;;;;;11.00;9.25;;;;;7.70;74.79;99746.66;4924927;28;46519;-85
2021/12/02 02:15:08;;;;;;;;;6.50;6.00;;;;;7.71;75.52;99751.03;4925421;28;45439;-84
2021/12/02 02:17:49;;;;;;;;;7.25;7.00;;;;;7.64;75.19;99744.03;4907129;29;45411;-83
2021/12/02 02:20:15;;;;;;;;;6.00;5.75;;;;;7.72;74.63;99765.88;4907504;29;45421;-85
2021/12/02 02:22:40;;;;;;;;;7.00;7.00;;;;;7.83;74.48;99793.03;4924577;28;46159;-85
2021/12/02 02:25:12;;;;;;;;;10.75;6.75;;;;;7.68;74.54;99770.25;4908786;28;45343;-85
2021/12/02 02:27:38;;;;;;;;;8.75;7.75;;;;;7.74;74.57;99782.53;4926199;28;45283;-85
2021/12/02 02:30:04;;;;;;;;;6.25;5.50;;;;;7.88;74.77;99809.66;4926136;28;45241;-84
2021/12/02 02:32:31;;;;;;;;;8.50;6.75;;;;;7.75;74.97;99796.50;4925338;28;46478;-85
2021/12/02 02:34:57;;;;;;;;;8.50;7.00;;;;;7.66;74.93;99779.88;4925409;28;45609;-84
2021/12/02 02:37:22;;;;;;;;;8.00;8.00;;;;;7.84;74.50;99812.28;4925408;28;45703;-83
2021/12/02 02:39:48;;;;;;;;;7.75;5.50;;;;;7.70;74.18;99781.63;4925969;28;45946;-83
2021/12/02 02:42:13;;;;;;;;;3.00;3.00;;;;;7.90;74.33;99820.13;4925918;28;46255;-85
2021/12/02 02:44:38;;;;;;;;;7.00;6.00;;;;;7.86;74.31;99819.25;4925846;28;45306;-82
2021/12/02 02:47:07;;;;;;;;;6.00;6.00;;;;;7.95;74.05;99840.28;4926025;28;45403;-84
2021/12/02 02:49:32;;;;;;;;;7.25;7.25;;;;;7.58;74.29;99770.22;4926758;28;45217;-83
2021/12/02 02:51:58;;;;;;;;;6.00;6.00;;;;;7.79;73.92;99811.38;4923836;28;45386;-84
2021/12/02 02:54:24;;;;;;;;;6.25;6.25;;;;;7.76;73.70;99806.13;4925522;28;45168;-84
2021/12/02 02:57:04;;;;;;;;;5.25;5.00;;;;;7.70;73.84;99797.34;4925742;28;45221;-82
2021/12/02 03:12:54;;;;;;;;;3.50;3.50;;;;;7.91;73.98;99859.50;4921948;28;46038;-85
2021/12/02 03:16:37;;;;;;;;;3.00;3.00;;;;;7.88;72.65;99854.22;4914882;28;45489;-84
2021/12/02 03:17:38;;;;;;;;;2.75;2.50;;;;;7.59;73.21;99816.53;4921578;28;45365;-85
2021/12/02 03:20:05;;;;;;;;;6.75;3.25;;;;;7.87;72.37;99883.94;4922723;28;45354;-85
2021/12/02 03:22:31;;;;;;;;;3.00;3.00;;;;;7.85;72.48;99861.22;4924374;28;46114;-84
2021/12/02 03:24:56;;;;;;;;;4.75;3.00;;;;;7.70;72.72;99841.03;4926082;28;45447;-83
2021/12/02 03:27:22;;;;;;;;;3.50;2.00;;;;;7.87;72.09;99877.81;4926036;28;45485;-86
2021/12/02 03:29:47;;;;;;;;;5.00;3.00;;;;;7.76;71.64;99867.28;4925707;28;45279;-84
2021/12/02 03:32:13;;;;;;;;;2.75;1.75;;;;;7.79;71.40;99880.41;4927290;28;45573;-83
2021/12/02 03:34:39;;;;;;;;;2.00;2.00;;;;;7.90;71.79;99889.19;4921419;28;45418;-85
2021/12/02 03:37:06;;;;;;;;;3.50;2.50;;;;;7.78;71.66;99868.16;4926111;28;45520;-86
2021/12/02 03:39:31;;;;;;;;;2.25;1.75;;;;;7.86;71.88;99883.94;4926170;28;45218;-86
2021/12/02 03:41:57;;;;;;;;;1.75;1.75;;;;;7.60;71.38;99845.34;4922615;28;45612;-82
2021/12/02 03:44:24;;;;;;;;;2.00;2.00;;;;;7.85;71.04;99895.31;4922396;28;45235;-85
2021/12/02 03:46:51;;;;;;;;;1.50;1.00;;;;;7.69;70.53;99869.00;4920783;28;45538;-84
2021/12/02 03:49:16;;;;;;;;;3.00;3.00;;;;;7.77;70.11;99876.91;4911893;28;45370;-84
2021/12/02 03:51:42;;;;;;;;;2.00;1.00;;;;;7.85;70.57;99890.06;4921604;28;45454;-85
2021/12/02 03:54:08;;;;;;;;;1.00;1.00;;;;;7.74;70.23;99892.63;4904306;29;45197;-85
2021/12/02 03:56:33;;;;;;;;;1.50;1.50;;;;;7.77;70.61;99908.38;4906445;28;45366;-81
2021/12/02 03:58:59;;;;;;;;;4.25;1.00;;;;;7.71;70.37;99910.94;4910055;28;45256;-83
2021/12/02 04:01:25;;;;;;;;;1.50;1.00;;;;;7.48;69.74;99881.13;4921676;28;45413;-83
2021/12/02 04:03:51;;;;;;;;;0.25;0.25;;;;;7.48;69.37;99888.97;4905015;28;45259;-84
2021/12/02 04:06:17;;;;;;;;;0.50;0.00;;;;;7.64;68.70;99917.03;4902842;29;45213;-84
2021/12/02 04:08:50;;;;;;;;;1.00;1.00;;;;;7.64;68.95;99917.03;4915766;28;45273;-83
2021/12/02 04:11:32;;;;;;;;;1.00;1.00;;;;;7.55;68.66;99917.84;4921486;28;45285;-84
2021/12/02 04:16:26;;;;;;;;;1.00;1.00;;;;;7.38;68.53;99907.25;4921802;28;45420;-82
2021/12/02 04:18:51;;;;;;;;;1.50;1.50;;;;;7.07;69.45;99872.13;4921700;28;45434;-84
2021/12/02 04:21:17;;;;;;;;;0.00;0.00;;;;;7.13;67.46;99886.97;4915352;28;46692;-83
2021/12/02 04:23:42;;;;;;;;;1.25;0.00;;;;;7.03;66.77;99867.69;4921435;28;45230;-85
2021/12/02 04:26:08;;;;;;;;;4.50;1.00;;;;;7.09;67.41;99875.63;4921536;28;45667;-85
2021/12/02 04:28:33;;;;;;;;;1.00;0.50;;;;;6.70;65.85;99834.28;4903226;28;45158;-83
2021/12/02 04:30:59;;;;;;;;;0.50;0.50;;;;;7.21;66.82;99936.81;4913452;28;46195;-84
2021/12/02 04:33:25;;;;;;;;;0.50;0.00;;;;;6.77;65.93;99864.88;4920768;28;45340;-82
2021/12/02 04:35:52;;;;;;;;;0.75;0.75;;;;;6.46;66.59;99831.44;4921446;28;45237;-84
2021/12/02 04:38:18;;;;;;;;;0.00;0.00;;;;;6.91;66.31;99935.69;4920804;28;45247;-84
2021/12/02 04:40:44;;;;;;;;;3.50;1.25;;;;;6.66;66.57;99904.91;4919606;28;45531;-83
2021/12/02 04:43:10;;;;;;;;;0.25;0.25;;;;;6.74;66.15;99942.50;4919545;28;45512;-81
2021/12/02 04:45:35;;;;;;;;;1.00;0.00;;;;;6.73;66.53;99957.31;4921478;28;45368;-84
2021/12/02 04:48:01;;;;;;;;;2.00;0.75;;;;;6.65;67.27;99958.09;4921360;28;45304;-83
2021/12/02 04:50:27;;;;;;;;;1.00;1.00;;;;;6.48;67.55;99940.47;4903491;28;47296;-83
2021/12/02 04:52:53;;;;;;;;;2.00;0.75;;;;;6.26;67.02;99920.19;4920971;28;45368;-82
2021/12/02 04:55:19;;;;;;;;;3.00;1.00;;;;;6.49;67.61;99970.13;4920799;28;45418;-82
2021/12/02 04:57:46;;;;;;;;;1.00;1.00;;;;;6.37;68.22;99964.78;4920561;28;45752;-82
2021/12/02 05:00:11;;;;;;;;;2.50;0.25;;;;;6.29;68.13;99967.28;4918665;28;46740;-81
2021/12/02 05:02:37;;;;;;;;;0.75;0.75;;;;;6.28;68.54;99961.19;4920518;28;45493;-83
2021/12/02 05:05:03;;;;;;;;;2.75;2.75;;;;;6.21;67.74;99961.06;4920323;28;45355;-81
2021/12/02 05:07:28;;;;;;;;;2.25;0.75;;;;;6.06;67.89;99950.44;4921050;28;45414;-82
2021/12/02 05:09:53;;;;;;;;;6.50;1.75;;;;;6.24;69.01;99990.78;4917054;28;46288;-82
2021/12/02 05:12:21;;;;;;;;;2.50;1.50;;;;;6.20;68.67;99994.19;4920658;28;45398;-82
2021/12/02 05:14:46;;;;;;;;;1.00;1.00;;;;;6.09;69.37;99984.47;4917146;28;45241;-82
2021/12/02 05:17:11;;;;;;;;;2.00;2.00;;;;;5.75;69.78;99933.41;4920617;28;45432;-82
2021/12/02 05:19:37;;;;;;;;;5.00;2.00;;;;;6.04;69.05;99979.16;4924071;28;46064;-83
2021/12/02 05:22:02;;;;;;;;;2.50;1.25;;;;;6.10;69.65;100002.78;4921784;28;45244;-81
2021/12/02 05:24:28;;;;;;;;;1.25;1.00;;;;;5.73;70.03;99942.13;4923621;28;45263;-82
2021/12/02 05:26:53;;;;;;;;;1.75;1.75;;;;;6.00;70.02;99998.28;4922703;28;45466;-80
2021/12/02 05:29:19;;;;;;;;;2.00;1.50;;;;;5.95;70.17;99981.66;4920889;28;46682;-81
2021/12/02 05:31:44;;;;;;;;;2.00;2.00;;;;;5.70;69.44;99947.31;4920096;28;45736;-83
2021/12/02 05:34:09;;;;;;;;;1.00;1.00;;;;;5.78;70.24;99970.06;4919260;28;45347;-82
2021/12/02 05:36:35;;;;;;;;;2.25;2.00;;;;;5.79;70.03;99969.22;4916120;28;45314;-82
2021/12/02 05:39:00;;;;;;;;;1.00;1.00;;;;;5.82;69.75;99953.56;4917179;28;45630;-80
2021/12/02 05:41:26;;;;;;;;;3.00;2.25;;;;;6.13;69.28;99994.97;4919748;28;45372;-79
2021/12/02 05:43:51;;;;;;;;;3.25;2.00;;;;;6.22;69.08;99999.44;4919683;28;45337;-81
2021/12/02 05:46:17;;;;;;;;;2.75;2.00;;;;;6.16;68.61;99981.06;4920103;28;45382;-79
2021/12/02 05:48:42;;;;;;;;;4.50;1.00;;;;;6.18;68.48;99972.38;4919568;28;46212;-82
2021/12/02 05:51:08;;;;;;;;;1.50;1.00;;;;;6.23;68.17;99995.97;4919592;28;45454;-84
2021/12/02 05:53:33;;;;;;;;;2.00;1.00;;;;;5.86;68.16;99944.88;4913275;28;45335;-83
2021/12/02 05:55:58;;;;;;;;;1.00;1.00;;;;;5.83;68.44;99953.56;4919717;28;45470;-84
2021/12/02 05:58:24;;;;;;;;;1.00;1.00;;;;;5.93;68.76;99983.38;4910140;28;45706;-84
2021/12/02 06:00:50;;;;;;;;;1.50;1.25;;;;;5.84;68.64;99980.59;4920040;28;45375;-82
2021/12/02 06:03:15;;;;;;;;;3.00;1.75;;;;;5.76;69.12;99997.88;4919341;28;45327;-84
2021/12/02 06:05:43;;;;;;;;;2.25;2.00;;;;;5.71;69.83;99998.72;4920502;28;45496;-83
2021/12/02 06:08:09;;;;;;;;;2.00;2.00;;;;;5.66;70.11;100000.38;4919594;28;45505;-83
2021/12/02 06:10:35;;;;;;;;;2.50;2.50;;;;;5.44;69.34;99978.25;4919853;28;45391;-81
2021/12/02 06:13:00;;;;;;;;;3.00;3.00;;;;;5.10;69.95;99924.63;4915979;28;45462;-82
2021/12/02 06:15:26;;;;;;;;;5.00;2.00;;;;;5.31;70.04;99970.22;4920304;28;45233;-82
2021/12/02 06:17:51;;;;;;;;;3.50;2.00;;;;;5.45;70.52;100002.66;4919239;28;45382;-82
2021/12/02 06:20:17;;;;;;;;;2.75;2.25;;;;;5.63;70.22;100038.66;4919470;28;45489;-83
2021/12/02 06:22:44;;;;;;;;;2.00;2.00;;;;;5.61;70.07;100037.75;4920018;28;45378;-84
2021/12/02 06:27:39;;;;;;;;;5.00;5.00;;;;;5.48;70.47;100014.88;4925746;28;45382;-84
2021/12/02 06:30:05;;;;;;;;;1.50;1.50;;;;;5.59;70.32;100042.97;4922833;28;45236;-82
2021/12/02 06:32:31;;;;;;;;;3.50;3.50;;;;;5.29;70.39;99991.06;4921020;28;45593;-83
2021/12/02 06:34:56;;;;;;;;;3.50;3.50;;;;;5.44;70.95;100019.19;4909784;28;45482;-83
2021/12/02 06:37:22;;;;;;;;;2.00;2.00;;;;;5.13;71.00;99976.03;4901768;28;45773;-80
2021/12/02 06:39:50;;;;;;;;;2.25;2.25;;;;;5.28;70.95;100011.94;4906763;28;45341;-80
2021/12/02 06:42:18;;;;;;;;;6.75;5.00;;;;;5.20;71.00;100008.31;4916724;28;45512;-80
2021/12/02 06:44:43;;;;;;;;;5.00;4.50;;;;;5.37;71.26;100048.66;4917258;28;45497;-81
2021/12/02 06:47:09;;;;;;;;;7.50;5.50;;;;;5.16;71.38;100012.63;4915921;28;46144;-81
2021/12/02 06:49:38;;;;;;;;;2.50;2.50;;;;;5.33;71.14;100054.69;4922554;28;45375;-81
2021/12/02 06:52:05;;;;;;;;;3.25;3.25;;;;;5.22;71.68;100044.06;4920922;28;45506;-82
2021/12/02 06:54:30;;;;;;;;;2.00;2.00;;;;;5.12;71.55;100042.16;4915826;28;45369;-84
2021/12/02 06:56:56;;;;;;;;;3.00;3.00;;;;;5.30;71.25;100088.56;4922369;28;45466;-83
2021/12/02 06:59:21;;;;;;;;;2.75;2.75;;;;;5.37;71.24;100080.00;4925515;28;45242;-84
2021/12/02 07:01:47;;;;;;;;;2.00;2.00;;;;;5.31;70.04;100049.44;4920442;28;45243;-82
2021/12/02 07:04:12;;;;;;;;;4.50;4.50;;;;;5.40;70.08;100054.84;4921654;28;45332;-83
2021/12/02 07:06:39;;;;;;;;;4.25;4.25;;;;;5.43;70.25;100051.38;4922302;28;45404;-85
2021/12/02 07:09:06;;;;;;;;;5.00;5.00;;;;;5.66;69.34;100112.72;4922803;28;45197;-85
2021/12/02 07:11:32;;;;;;;;;3.75;3.50;;;;;5.65;68.67;100105.75;4922111;28;45420;-84
2021/12/02 07:14:03;;;;;;;;;4.25;1.75;;;;;5.27;69.01;100029.34;4918100;28;45328;-84
2021/12/02 07:16:28;;;;;;;;;6.50;5.00;;;;;5.62;69.24;100086.53;4904076;29;46238;-85
2021/12/02 07:18:56;;;;;;;;;5.50;3.50;;;;;5.44;67.66;100060.97;4904186;29;45299;-85
2021/12/02 07:21:23;;;;;;;;;5.25;3.00;;;;;5.69;68.19;100114.53;4904349;29;45414;-84
2021/12/02 07:23:49;;;;;;;;;1.00;1.00;;;;;5.45;67.59;100086.25;4903600;29;45487;-84
2021/12/02 07:26:18;;;;;;;;;2.00;2.00;;;;;5.33;68.28;100075.59;4920715;28;47488;-85
2021/12/02 07:28:45;;;;;;;;;3.00;3.00;;;;;5.49;68.51;100116.81;4926413;28;45195;-84
2021/12/02 07:31:12;;;;;;;;;3.50;2.00;;;;;5.48;68.48;100117.63;4925699;28;45148;-82
2021/12/02 07:33:42;;;;;;;;;4.00;4.00;;;;;5.24;68.44;100091.97;4924389;28;45429;-84
2021/12/02 07:36:07;;;;;;;;;2.75;2.75;;;;;5.41;68.51;100134.94;4923635;28;45444;-82
2021/12/02 07:38:37;;;;;;;;;2.25;2.00;;;;;4.65;68.84;100002.97;4923559;28;45462;-83
2021/12/02 07:41:04;;;;;;;;;5.50;3.00;;;;;5.39;68.96;100136.63;4923646;28;45968;-83
2021/12/02 07:43:35;;;;;;;;;1.50;1.00;;;;;5.27;68.44;100099.84;4922055;28;45433;-84
2021/12/02 07:46:02;;;;;;;;;7.00;3.00;;;;;5.23;68.99;100103.25;4922670;28;45628;-83
2021/12/02 07:48:28;;;;;;;;;1.50;1.50;;;;;5.18;69.18;100094.44;4923385;28;45299;-85
2021/12/02 07:51:00;;;;;;;;;6.25;2.25;;;;;5.08;68.76;100077.72;4922871;28;45418;-85
2021/12/02 07:53:27;;;;;;;;;3.75;3.00;;;;;5.36;68.72;100128.75;4923976;28;45414;-84
2021/12/02 07:55:56;;;;;;;;;6.00;2.75;;;;;5.40;68.65;100134.91;4904920;28;46966;-84
2021/12/02 07:58:24;;;;;;;;;3.50;3.50;;;;;5.40;68.48;100120.13;4923472;28;45245;-84
2021/12/02 08:00:50;;;;;;;;;5.75;4.50;;;;;5.36;68.42;100086.06;4922684;28;45205;-87
2021/12/02 08:03:16;;;;;;;;;5.00;2.00;;;;;5.41;68.22;100071.38;4923311;28;45362;-86
2021/12/02 08:05:42;;;;;;;;;3.00;3.00;;;;;5.89;67.30;100148.84;4922239;28;46083;-82
2021/12/02 08:08:08;;;;;;;;;2.25;2.25;;;;;5.82;66.64;100108.63;4922786;28;45349;-85
2021/12/02 08:10:34;;;;;;;;;5.00;3.00;;;;;6.11;66.12;100148.34;4922690;28;45418;-85
2021/12/02 08:13:01;;;;;;;;;2.00;2.00;;;;;6.10;66.31;100136.13;4923078;28;45443;-84
2021/12/02 08:15:28;;;;;;;;;1.75;1.75;;;;;5.88;66.20;100100.03;4923204;28;46151;-84
2021/12/02 08:17:55;;;;;;;;;3.00;3.00;;;;;6.22;66.11;100164.22;4925927;28;45272;-84
2021/12/02 08:20:22;;;;;;;;;4.50;4.00;;;;;6.08;65.25;100127.41;4922882;28;45350;-83
2021/12/02 08:22:47;;;;;;;;;5.25;3.00;;;;;6.26;65.53;100166.91;4921469;28;45484;-84
2021/12/02 08:25:14;;;;;;;;;6.00;5.00;;;;;6.05;65.27;100129.97;4922508;28;46069;-84
2021/12/02 08:27:40;;;;;;;;;4.50;4.50;;;;;6.26;64.63;100161.69;4921405;28;45470;-84
2021/12/02 08:30:08;;;;;;;;;7.00;5.00;;;;;6.42;65.29;100173.25;4928072;28;45350;-84
2021/12/02 08:32:37;;;;;;;;;5.00;4.50;;;;;6.10;64.95;100111.72;4932356;28;45201;-84
2021/12/02 08:35:03;;;;;;;;;2.00;2.00;;;;;6.49;64.36;100182.06;4924586;28;46375;-85
2021/12/02 08:37:31;;;;;;;;;2.00;2.00;;;;;6.55;63.77;100183.03;4908137;28;45819;-84
2021/12/02 08:39:59;;;;;;;;;4.00;4.00;;;;;6.42;64.50;100165.41;4926257;28;45490;-85
2021/12/02 08:42:26;;;;;;;;;2.25;2.25;;;;;6.61;63.81;100194.44;4927019;28;45266;-85
2021/12/02 08:44:53;;;;;;;;;5.00;2.00;;;;;6.31;64.21;100147.78;4924299;28;46280;-84
2021/12/02 08:47:21;;;;;;;;;5.75;5.00;;;;;6.49;64.72;100171.59;4922285;28;45335;-84
2021/12/02 08:49:47;;;;;;;;;3.50;3.50;;;;;6.61;64.67;100178.75;4923805;28;45284;-83
2021/12/02 08:52:12;;;;;;;;;2.50;2.50;;;;;6.75;64.63;100200.75;4924145;28;45473;-84
2021/12/02 08:54:38;;;;;;;;;5.75;3.00;;;;;6.85;64.14;100194.81;4923018;28;46575;-83
2021/12/02 08:57:03;;;;;;;;;5.75;3.50;;;;;6.79;63.45;100174.66;4921888;28;45316;-85
2021/12/02 08:59:30;;;;;;;;;2.25;2.25;;;;;7.00;63.98;100204.63;4910051;28;45289;-85
2021/12/02 09:01:55;;;;;;;;;12.25;8.00;;;;;7.16;63.45;100206.53;4923680;28;45408;-85
2021/12/02 09:04:21;;;;;;;;;7.50;6.00;;;;;6.50;62.76;100081.78;4924281;28;45363;-84
2021/12/02 09:06:46;;;;;;;;;5.25;4.00;;;;;7.36;62.71;100209.44;4921877;28;45259;-85
2021/12/02 09:09:11;;;;;;;;;4.75;1.25;;;;;7.30;62.42;100180.53;4921853;28;45435;-84
2021/12/02 09:11:37;;;;;;;;;2.00;2.00;;;;;7.30;61.55;100175.28;4923819;28;45334;-84
2021/12/02 09:14:05;;;;;;;;;6.25;6.25;;;;;7.44;61.62;100178.94;4923013;28;46490;-87
2021/12/02 09:16:32;;;;;;;;;5.50;3.50;;;;;8.18;60.48;100226.00;4922281;28;45292;-85
2021/12/02 09:18:58;;;;;;;;;3.75;3.75;;;;;9.01;57.30;100182.84;4923412;28;45239;-87
2021/12/02 09:21:24;;;;;;;;;6.75;4.75;;;;;10.53;54.52;100228.81;4924398;28;45379;-87
2021/12/02 09:23:51;;;;;;;;;9.50;4.00;;;;;10.66;53.22;100209.47;4924858;28;45523;-86
2021/12/02 09:26:16;;;;;;;;;6.25;4.25;;;;;10.69;53.20;100196.28;4924890;28;45320;-86
2021/12/02 09:28:42;;;;;;;;;2.00;2.00;;;;;10.75;52.00;100227.88;4923619;28;45392;-87
2021/12/02 09:31:08;;;;;;;;;3.25;3.25;;;;;10.83;52.84;100236.66;4923766;28;45362;-86
2021/12/02 09:33:33;;;;;;;;;3.00;3.00;;;;;10.48;53.71;100222.66;4921391;28;46399;-86
2021/12/02 09:35:59;;;;;;;;;2.50;2.25;;;;;10.33;53.38;100220.00;4923245;28;45271;-87
2021/12/02 09:38:24;;;;;;;;;4.50;1.00;;;;;10.27;53.87;100234.06;4929470;28;45326;-86
2021/12/02 09:40:50;;;;;;;;;4.75;3.25;;;;;9.83;54.21;100205.03;4907022;28;45292;-84
2021/12/02 09:43:16;;;;;;;;;1.50;1.50;;;;;9.59;54.48;100208.50;4922620;28;45699;-85
2021/12/02 09:45:42;;;;;;;;;4.00;4.00;;;;;9.72;54.72;100239.19;4924492;28;45615;-85
2021/12/02 09:48:09;;;;;;;;;3.75;2.25;;;;;9.76;54.89;100250.59;4923916;28;45426;-86
2021/12/02 09:50:49;;;;;;;;;2.00;2.00;;;;;10.03;54.39;100234.88;4922181;28;45232;-86
2021/12/02 09:53:19;;;;;;;;;3.50;2.00;;;;;10.69;51.67;100212.06;4921778;28;46536;-85
2021/12/02 09:55:50;;;;;;;;;2.00;2.00;;;;;11.17;50.36;100241.88;4904228;28;45284;-84
2021/12/02 09:58:34;;;;;;;;;3.25;3.25;;;;;10.40;51.57;100190.16;4921625;28;45270;-82
2021/12/02 10:01:07;;;;;;;;;7.25;4.50;;;;;10.42;52.47;100260.41;4922246;28;45348;-86
2021/12/02 10:03:38;;;;;;;;;4.00;2.00;;;;;10.21;53.47;100248.06;4921073;28;48433;-86
2021/12/02 10:06:08;;;;;;;;;5.00;3.00;;;;;10.09;52.79;100269.09;4920572;28;45232;-85
2021/12/02 10:11:41;;;;;;;;;6.50;4.25;;;;;10.19;52.48;100226.13;4920197;28;45391;-85
2021/12/02 10:14:13;;;;;;;;;4.00;4.00;;;;;11.91;48.93;100245.97;4919417;28;46766;-85
2021/12/02 10:16:41;;;;;;;;;5.00;2.25;;;;;11.92;47.71;100218.69;4903272;28;45340;-84
2021/12/02 10:19:10;;;;;;;;;2.00;2.00;;;;;11.89;47.95;100245.06;4920485;28;45418;-86
2021/12/02 10:22:00;;;;;;;;;2.00;2.00;;;;;12.11;48.50;100264.31;4906216;28;45582;-83
2021/12/02 10:24:28;;;;;;;;;4.00;4.00;;;;;11.42;48.40;100243.50;4923654;28;45536;-84
2021/12/02 10:27:05;;;;;;;;;4.00;2.50;;;;;11.00;50.27;100270.03;4923318;28;45209;-84
2021/12/02 10:29:34;;;;;;;;;3.75;3.75;;;;;11.11;49.89;100231.31;4923825;28;45292;-85
2021/12/02 10:32:11;;;;;;;;;5.00;2.75;;;;;13.12;46.50;100334.81;4905185;28;45558;-84
2021/12/02 10:34:54;;;;;;;;;4.00;1.75;;;;;13.89;44.18;100251.06;4906700;28;47115;-84
2021/12/02 10:37:28;;;;;;;;;3.75;2.25;;;;;15.31;40.43;100223.94;4924016;28;45296;-85
2021/12/02 10:40:07;;;;;;;;;3.75;2.00;;;;;14.21;40.78;100215.25;4907230;28;45341;-85
2021/12/02 10:42:37;;;;;;;;;2.00;2.00;;;;;13.50;43.55;100235.72;4923611;28;45422;-85
2021/12/02 10:45:04;;;;;;;;;3.00;2.50;;;;;12.59;44.65;100233.13;4923723;28;45460;-83
2021/12/02 10:47:30;;;;;;;;;2.50;2.00;;;;;13.81;43.05;100241.47;4923290;28;45428;-85
2021/12/02 10:50:07;;;;;;;;;3.75;3.00;;;;;13.31;43.18;100185.69;4906279;28;45344;-84
2021/12/02 10:52:34;;;;;;;;;3.50;1.75;;;;;13.08;43.58;100196.47;4923409;28;45479;-84
2021/12/02 10:55:07;;;;;;;;;2.50;1.00;;;;;12.39;46.85;100154.06;4923112;28;46334;-84
2021/12/02 10:57:36;;;;;;;;;1.00;1.00;;;;;11.81;44.71;100190.56;4922778;28;45273;-83
2021/12/02 11:00:08;;;;;;;;;3.00;2.00;;;;;11.62;45.13;100235.50;4922630;28;45470;-85
2021/12/02 11:02:39;;;;;;;;;4.50;3.50;;;;;11.67;44.96;100230.22;4923062;28;45444;-85
2021/12/02 11:05:21;;;;;;;;;0.25;0.25;;;;;11.52;45.90;100222.38;4922963;28;45515;-85
2021/12/02 11:07:54;;;;;;;;;2.00;2.00;;;;;11.49;45.47;100223.28;4923166;28;45398;-85
2021/12/02 11:10:20;;;;;;;;;2.50;1.00;;;;;11.20;44.67;100181.22;4922594;28;45529;-84
2021/12/02 11:12:48;;;;;;;;;1.00;1.00;;;;;11.18;45.18;100200.56;4923456;28;45260;-84
2021/12/02 11:15:18;;;;;;;;;4.00;2.00;;;;;10.88;46.19;100197.09;4923151;28;46679;-85
2021/12/02 11:17:50;;;;;;;;;1.25;1.25;;;;;10.83;45.84;100230.50;4905969;28;46140;-84
2021/12/02 11:20:26;;;;;;;;;3.25;2.00;;;;;10.35;46.61;100205.09;4923391;28;45525;-83
2021/12/02 11:23:31;;;;;;;;;1.50;1.50;;;;;10.20;47.63;100225.25;4922322;28;45462;-83
2021/12/02 11:26:11;;;;;;;;;2.00;2.00;;;;;9.70;48.74;100215.53;4864013;29;46297;-85
2021/12/02 11:28:41;;;;;;;;;2.50;1.75;;;;;9.38;47.90;100191.75;4863275;29;45350;-84
2021/12/02 11:31:09;;;;;;;;;3.00;1.00;;;;;9.39;47.77;100225.03;4865040;29;46076;-84
2021/12/02 11:33:36;;;;;;;;;3.00;3.00;;;;;9.11;49.23;100191.63;4859972;29;45547;-82
2021/12/02 11:36:04;;;;;;;;;2.00;2.00;;;;;9.23;49.54;100236.38;4861956;29;45823;-79
2021/12/02 11:38:30;;;;;;;;;1.50;1.50;;;;;9.08;49.82;100242.44;4861712;29;45392;-79
2021/12/02 11:41:04;;;;;;;;;5.50;2.75;;;;;8.90;51.17;100234.44;4863009;29;45609;-79
2021/12/02 11:43:36;;;;;;;;;0.75;0.75;;;;;8.56;52.12;100229.00;4863295;29;45401;-80
2021/12/02 11:46:04;;;;;;;;;2.00;2.00;;;;;8.38;54.46;100260.34;4863424;29;45374;-77
2021/12/02 11:48:32;;;;;;;;;1.00;1.00;;;;;7.97;55.23;100229.31;4863726;28;45505;-78
2021/12/02 11:51:04;;;;;;;;;1.00;1.00;;;;;7.91;55.48;100246.72;4862627;29;45330;-79
2021/12/02 11:53:30;;;;;;;;;1.50;1.50;;;;;7.76;57.03;100246.56;4863796;29;45438;-78
2021/12/02 11:56:03;;;;;;;;;1.00;1.00;;;;;7.75;57.33;100236.94;4862376;29;46096;-81
2021/12/02 11:58:29;;;;;;;;;2.00;2.00;;;;;7.85;55.83;100217.81;4862832;29;45503;-78
2021/12/02 12:00:55;;;;;;;;;2.75;2.75;;;;;8.11;55.73;100229.44;4877828;28;45484;-77
2021/12/02 12:03:42;;;;;;;;;1.00;1.00;;;;;8.43;54.70;100228.88;4922776;28;45428;-77